DTM weather

Dortmund Airport
Dortmund, North Rhine-Westphalia, Germany

Public forecast

Using degrees Celsius for public forecast. Weather courtesy of forecast.io.

METAR (pilot weather report)

Retrieved 2019/03/26 15:20 UTC (33 minutes ago):

EDLW 261520Z 28006KT 240V330 9999 VCSH FEW006 SCT031 OVC042 07/04 Q1029

TAF (pilot weather forecast)

Retrieved 2019/03/26 12:29 UTC (3 hours ago):

TAF EDLW 261100Z 2612/2712 28006KT 9999 BKN040 BECMG 2700/2703 BKN010 TEMPO 2703/2707 4000 BR BKN007 BECMG 2707/2710 BKN025